Time Latitude Longitude Accuracy (66% radius in meters) Altitude (meters) Speed (km/hour) Bearing (degrees) Battery (%) GPS flag
10:01:08 60.253265 29.795858 0 77 0.27640584111214 51.650001525879 1 delete
09:59:55 60.253173 29.795807 0 77.6 0.29184749722481 358.45001220703 1 delete
09:58:48 60.253207 29.795975 0 74.5 0.37574723362923 19.790000915527 1 delete
09:58:30 60.253137 29.795858 0 74.2 0.64854997396469 229.41999816895 1 delete
09:57:18 60.253200 29.795993 0 72.9 0.3664822280407 213.88000488281 1 delete
09:56:20 60.253237 29.795817 0 73.7 0.66244751214981 87.129997253418 1 delete
09:55:08 60.253327 29.795755 0 87.5 0.47714748978615 12.640000343323 1 delete
09:54:30 60.253233 29.795815 0 90.9 0.41795444488525 281.35998535156 1 delete
09:52:54 60.253270 29.795982 0 91.7 0.32684859633446 281.35998535156 1 delete
09:51:00 60.253258 29.796162 0 85.7 0.068972781300545 281.35998535156 1 delete
09:50:53 60.253273 29.796345 0 80.5 4.1723384857178 279.42001342773 1 delete
09:50:51 60.253253 29.796535 0 79.9 5.3515667915344 268.55999755859 1 delete
09:50:49 60.253253 29.796735 0 79.2 4.6808838844299 278.38000488281 1 delete
09:50:46 60.253218 29.796968 0 77.5 3.5474655628204 279.10000610352 1 delete
09:50:42 60.253180 29.797168 0 76.1 3.4470946788788 283.32998657227 1 delete
09:50:39 60.253190 29.797397 0 75.6 4.8033876419067 271.83999633789 1 delete
09:50:36 60.253180 29.797672 0 73.4 3.8279891014099 281.95999145508 1 delete
09:50:33 60.253137 29.797848 0 72.1 4.4343318939209 326.08999633789 1 delete
09:50:30 60.253045 29.798018 0 72.5 5.1750173568726 311.13000488281 1 delete
09:50:28 60.252980 29.798160 0 72.8 4.9850845336914 295.41000366211 1 delete
09:50:25 60.252920 29.798398 0 73.6 4.0941004753113 271.33999633789 1 delete
09:50:22 60.252967 29.798615 0 74.4 4.3385934829712 228.39999389648 1 delete
09:50:20 60.253027 29.798755 0 74 4.8944935798645 232.94000244141 1 delete
09:50:18 60.253068 29.798922 0 73.2 4.2531495094299 265.70999145508 1 delete
09:50:15 60.253055 29.799168 0 72.8 4.5753660202026 282.26000976562 1 delete
09:50:13 60.253020 29.799335 0 72.9 4.8486833572388 282.44000244141 1 delete
09:50:11 60.253005 29.799528 0 72.6 4.332417011261 283.07000732422 1 delete
09:50:09 60.252995 29.799708 0 73.2 4.3993306159973 284.23001098633 1 delete
09:50:06 60.252983 29.799952 0 74.1 4.3169751167297 270.26998901367 1 delete
09:50:03 60.252967 29.800195 0 72.7 4.2521204948425 268.30999755859 1 delete
09:50:00 60.252997 29.800417 0 74.8 3.692102432251 244.44000244141 1 delete
09:49:57 60.252995 29.800612 0 76.4 4.6669864654541 315.29000854492 1 delete
09:49:54 60.252892 29.800800 0 77 5.696430683136 314.86999511719 1 delete
09:49:52 60.252820 29.800955 0 78.5 5.9105553627014 319.51998901367 1 delete
09:49:50 60.252740 29.801095 0 79 5.7149610519409 319.26000976562 1 delete
09:49:48 60.252665 29.801240 0 79.4 5.2280335426331 320.01000976562 1 delete
09:49:46 60.252592 29.801368 0 80 4.8852286338806 318.79000854492 1 delete
09:49:44 60.252505 29.801508 0 80.3 5.1317806243896 318.5299987793 1 delete
09:49:42 60.252438 29.801633 0 79.9 5.5481910705566 321.05999755859 1 delete
09:49:40 60.252350 29.801762 0 80.1 5.0617785453796 317.26000976562 1 delete
09:49:38 60.252285 29.801890 0 80 4.8908905982971 303.80999755859 1 delete
09:49:35 60.252218 29.802118 0 80.5 5.5620884895325 316.92999267578 1 delete
09:49:33 60.252148 29.802245 0 81.8 5.6526794433594 317.76000976562 1 delete
09:49:31 60.252070 29.802398 0 85.1 5.8626861572266 312.5299987793 1 delete
09:49:29 60.252002 29.802562 0 85.4 5.4663500785828 313.05999755859 1 delete
09:49:27 60.251920 29.802698 0 85.5 5.4344372749329 316.7200012207 1 delete
09:49:25 60.251842 29.802863 0 86 5.5384111404419 318.25 1 delete
09:49:22 60.251742 29.803043 0 87.2 5.6048102378845 314.73001098633 1 delete
09:49:19 60.251642 29.803218 0 86.7 5.1842823028564 316.13000488281 1 delete
09:49:17 60.251577 29.803352 0 86.9 5.3150215148926 319.07000732422 1 delete